sensor_id;sensor_type;location;lat;lon;timestamp;P1;durP1;ratioP1;P2;durP2;ratioP2
77955;SDS011;67152;36.266;32.294;2023-03-01T00:01:27;31.52;;;11.63;;
77955;SDS011;67152;36.266;32.294;2023-03-01T00:03:55;26.58;;;10.55;;
77955;SDS011;67152;36.266;32.294;2023-03-01T00:06:22;28.08;;;12.18;;
77955;SDS011;67152;36.266;32.294;2023-03-01T00:08:49;24.20;;;10.70;;
77955;SDS011;67152;36.266;32.294;2023-03-01T00:11:18;25.27;;;10.57;;
77955;SDS011;67152;36.266;32.294;2023-03-01T00:13:50;26.65;;;9.98;;
77955;SDS011;67152;36.266;32.294;2023-03-01T00:16:20;23.27;;;9.55;;
77955;SDS011;67152;36.266;32.294;2023-03-01T00:18:49;20.42;;;9.88;;
77955;SDS011;67152;36.266;32.294;2023-03-01T00:21:16;20.27;;;8.75;;
77955;SDS011;67152;36.266;32.294;2023-03-01T00:23:43;17.00;;;9.38;;
77955;SDS011;67152;36.266;32.294;2023-03-01T00:26:11;22.27;;;10.40;;
77955;SDS011;67152;36.266;32.294;2023-03-01T00:28:40;19.63;;;10.80;;
77955;SDS011;67152;36.266;32.294;2023-03-01T00:31:08;24.88;;;10.18;;
77955;SDS011;67152;36.266;32.294;2023-03-01T00:33:36;22.60;;;10.25;;
77955;SDS011;67152;36.266;32.294;2023-03-01T00:36:04;21.98;;;10.80;;
77955;SDS011;67152;36.266;32.294;2023-03-01T00:38:34;15.20;;;7.45;;
77955;SDS011;67152;36.266;32.294;2023-03-01T00:41:13;24.20;;;9.98;;
77955;SDS011;67152;36.266;32.294;2023-03-01T00:43:41;24.92;;;10.48;;
77955;SDS011;67152;36.266;32.294;2023-03-01T00:46:09;29.50;;;9.67;;
77955;SDS011;67152;36.266;32.294;2023-03-01T00:48:37;25.42;;;9.70;;
77955;SDS011;67152;36.266;32.294;2023-03-01T00:53:55;17.40;;;8.70;;
77955;SDS011;67152;36.266;32.294;2023-03-01T00:56:23;24.00;;;10.50;;
77955;SDS011;67152;36.266;32.294;2023-03-01T00:58:50;29.50;;;10.50;;
77955;SDS011;67152;36.266;32.294;2023-03-01T01:01:24;22.52;;;10.80;;
77955;SDS011;67152;36.266;32.294;2023-03-01T01:03:54;26.02;;;9.40;;
77955;SDS011;67152;36.266;32.294;2023-03-01T01:06:26;23.95;;;9.68;;
77955;SDS011;67152;36.266;32.294;2023-03-01T01:08:54;25.05;;;10.60;;
77955;SDS011;67152;36.266;32.294;2023-03-01T01:11:23;28.67;;;10.57;;
77955;SDS011;67152;36.266;32.294;2023-03-01T01:13:51;28.48;;;10.15;;
77955;SDS011;67152;36.266;32.294;2023-03-01T01:16:18;26.67;;;10.60;;
77955;SDS011;67152;36.266;32.294;2023-03-01T01:18:46;30.05;;;10.23;;
77955;SDS011;67152;36.266;32.294;2023-03-01T01:21:14;21.85;;;9.52;;
77955;SDS011;67152;36.266;32.294;2023-03-01T01:23:42;19.88;;;9.50;;
77955;SDS011;67152;36.266;32.294;2023-03-01T01:26:23;30.25;;;9.65;;
77955;SDS011;67152;36.266;32.294;2023-03-01T01:28:51;21.23;;;9.85;;
77955;SDS011;67152;36.266;32.294;2023-03-01T01:31:19;9.80;;;5.32;;
77955;SDS011;67152;36.266;32.294;2023-03-01T01:33:46;13.45;;;7.50;;
77955;SDS011;67152;36.266;32.294;2023-03-01T01:36:13;15.65;;;7.45;;
77955;SDS011;67152;36.266;32.294;2023-03-01T01:38:40;22.90;;;10.07;;
77955;SDS011;67152;36.266;32.294;2023-03-01T01:41:08;22.13;;;10.25;;
77955;SDS011;67152;36.266;32.294;2023-03-01T01:43:38;21.73;;;11.13;;
77955;SDS011;67152;36.266;32.294;2023-03-01T01:46:13;20.55;;;10.50;;
77955;SDS011;67152;36.266;32.294;2023-03-01T01:48:49;19.38;;;10.35;;
77955;SDS011;67152;36.266;32.294;2023-03-01T01:51:35;23.98;;;11.27;;
77955;SDS011;67152;36.266;32.294;2023-03-01T01:54:09;18.02;;;8.70;;
77955;SDS011;67152;36.266;32.294;2023-03-01T01:56:38;18.77;;;9.82;;
77955;SDS011;67152;36.266;32.294;2023-03-01T01:59:09;13.30;;;6.38;;
77955;SDS011;67152;36.266;32.294;2023-03-01T02:01:36;23.42;;;9.18;;
77955;SDS011;67152;36.266;32.294;2023-03-01T02:04:03;17.92;;;7.95;;
77955;SDS011;67152;36.266;32.294;2023-03-01T02:06:36;23.92;;;9.25;;
77955;SDS011;67152;36.266;32.294;2023-03-01T02:09:09;18.77;;;7.47;;
77955;SDS011;67152;36.266;32.294;2023-03-01T02:11:40;20.40;;;8.82;;
77955;SDS011;67152;36.266;32.294;2023-03-01T02:14:06;20.13;;;7.93;;
77955;SDS011;67152;36.266;32.294;2023-03-01T02:16:33;22.27;;;10.05;;
77955;SDS011;67152;36.266;32.294;2023-03-01T02:19:01;24.63;;;9.52;;
77955;SDS011;67152;36.266;32.294;2023-03-01T02:21:38;20.48;;;8.60;;
77955;SDS011;67152;36.266;32.294;2023-03-01T02:24:22;16.00;;;7.72;;
77955;SDS011;67152;36.266;32.294;2023-03-01T02:26:54;19.00;;;9.00;;
77955;SDS011;67152;36.266;32.294;2023-03-01T02:29:25;15.82;;;7.28;;
77955;SDS011;67152;36.266;32.294;2023-03-01T02:31:52;24.35;;;8.70;;
77955;SDS011;67152;36.266;32.294;2023-03-01T02:34:23;22.75;;;8.73;;
77955;SDS011;67152;36.266;32.294;2023-03-01T02:36:53;12.10;;;7.40;;
77955;SDS011;67152;36.266;32.294;2023-03-01T02:39:30;27.17;;;8.93;;
77955;SDS011;67152;36.266;32.294;2023-03-01T02:44:26;11.77;;;6.63;;
77955;SDS011;67152;36.266;32.294;2023-03-01T02:46:53;17.10;;;7.22;;
77955;SDS011;67152;36.266;32.294;2023-03-01T02:49:30;23.88;;;8.77;;
77955;SDS011;67152;36.266;32.294;2023-03-01T02:55:02;24.65;;;9.00;;
77955;SDS011;67152;36.266;32.294;2023-03-01T02:57:41;24.70;;;7.55;;
77955;SDS011;67152;36.266;32.294;2023-03-01T03:00:10;22.30;;;9.80;;
77955;SDS011;67152;36.266;32.294;2023-03-01T03:02:49;25.65;;;9.50;;
77955;SDS011;67152;36.266;32.294;2023-03-01T03:05:18;21.15;;;9.05;;
77955;SDS011;67152;36.266;32.294;2023-03-01T03:07:46;24.45;;;8.98;;
77955;SDS011;67152;36.266;32.294;2023-03-01T03:10:16;19.50;;;7.70;;
77955;SDS011;67152;36.266;32.294;2023-03-01T03:12:51;21.83;;;8.65;;
77955;SDS011;67152;36.266;32.294;2023-03-01T03:15:28;22.33;;;8.80;;
77955;SDS011;67152;36.266;32.294;2023-03-01T03:17:56;23.88;;;10.32;;
77955;SDS011;67152;36.266;32.294;2023-03-01T03:20:25;38.50;;;10.93;;
77955;SDS011;67152;36.266;32.294;2023-03-01T03:22:54;17.83;;;8.57;;
77955;SDS011;67152;36.266;32.294;2023-03-01T03:25:21;21.50;;;8.48;;
77955;SDS011;67152;36.266;32.294;2023-03-01T03:27:49;20.75;;;8.18;;
77955;SDS011;67152;36.266;32.294;2023-03-01T03:30:23;28.33;;;8.50;;
77955;SDS011;67152;36.266;32.294;2023-03-01T03:32:51;15.52;;;7.50;;
77955;SDS011;67152;36.266;32.294;2023-03-01T03:35:19;16.98;;;8.20;;
77955;SDS011;67152;36.266;32.294;2023-03-01T03:37:57;16.80;;;6.47;;
77955;SDS011;67152;36.266;32.294;2023-03-01T03:42:57;25.38;;;9.93;;
77955;SDS011;67152;36.266;32.294;2023-03-01T03:45:23;26.63;;;9.30;;
77955;SDS011;67152;36.266;32.294;2023-03-01T03:47:50;24.45;;;8.77;;
77955;SDS011;67152;36.266;32.294;2023-03-01T03:50:17;27.40;;;8.52;;
77955;SDS011;67152;36.266;32.294;2023-03-01T03:52:45;17.15;;;8.50;;
77955;SDS011;67152;36.266;32.294;2023-03-01T03:55:16;22.73;;;8.63;;
77955;SDS011;67152;36.266;32.294;2023-03-01T03:57:45;30.80;;;8.25;;
77955;SDS011;67152;36.266;32.294;2023-03-01T04:00:17;21.33;;;8.68;;
77955;SDS011;67152;36.266;32.294;2023-03-01T04:02:46;24.65;;;7.78;;
77955;SDS011;67152;36.266;32.294;2023-03-01T04:05:15;27.48;;;10.38;;
77955;SDS011;67152;36.266;32.294;2023-03-01T04:07:43;21.80;;;8.52;;
77955;SDS011;67152;36.266;32.294;2023-03-01T04:12:43;27.35;;;9.30;;
77955;SDS011;67152;36.266;32.294;2023-03-01T04:15:10;29.13;;;8.50;;
77955;SDS011;67152;36.266;32.294;2023-03-01T04:17:41;42.45;;;11.63;;
77955;SDS011;67152;36.266;32.294;2023-03-01T04:20:13;42.35;;;11.52;;
77955;SDS011;67152;36.266;32.294;2023-03-01T04:22:52;37.95;;;11.13;;
77955;SDS011;67152;36.266;32.294;2023-03-01T04:25:23;30.52;;;10.77;;
77955;SDS011;67152;36.266;32.294;2023-03-01T04:27:50;17.35;;;8.25;;
77955;SDS011;67152;36.266;32.294;2023-03-01T04:30:17;23.80;;;10.18;;
77955;SDS011;67152;36.266;32.294;2023-03-01T04:32:44;31.00;;;9.93;;
77955;SDS011;67152;36.266;32.294;2023-03-01T04:35:11;41.50;;;11.07;;
77955;SDS011;67152;36.266;32.294;2023-03-01T04:37:38;38.08;;;13.95;;
77955;SDS011;67152;36.266;32.294;2023-03-01T04:40:07;53.05;;;11.80;;
77955;SDS011;67152;36.266;32.294;2023-03-01T04:42:42;39.63;;;11.70;;
77955;SDS011;67152;36.266;32.294;2023-03-01T04:45:09;41.88;;;16.10;;
77955;SDS011;67152;36.266;32.294;2023-03-01T04:47:42;44.08;;;13.30;;
77955;SDS011;67152;36.266;32.294;2023-03-01T04:50:10;27.42;;;12.38;;
77955;SDS011;67152;36.266;32.294;2023-03-01T04:52:38;46.30;;;14.48;;
77955;SDS011;67152;36.266;32.294;2023-03-01T04:55:05;31.23;;;10.70;;
77955;SDS011;67152;36.266;32.294;2023-03-01T04:57:33;35.20;;;10.40;;
77955;SDS011;67152;36.266;32.294;2023-03-01T05:00:00;44.15;;;13.02;;
77955;SDS011;67152;36.266;32.294;2023-03-01T05:02:27;35.67;;;12.13;;
77955;SDS011;67152;36.266;32.294;2023-03-01T05:04:55;45.28;;;12.65;;
77955;SDS011;67152;36.266;32.294;2023-03-01T05:07:23;35.42;;;12.55;;
77955;SDS011;67152;36.266;32.294;2023-03-01T05:09:50;45.17;;;13.88;;
77955;SDS011;67152;36.266;32.294;2023-03-01T05:12:37;48.55;;;13.75;;
77955;SDS011;67152;36.266;32.294;2023-03-01T05:15:04;29.07;;;11.43;;
77955;SDS011;67152;36.266;32.294;2023-03-01T05:17:33;35.00;;;12.05;;
77955;SDS011;67152;36.266;32.294;2023-03-01T05:22:27;37.33;;;11.15;;
77955;SDS011;67152;36.266;32.294;2023-03-01T05:24:53;37.60;;;13.13;;
77955;SDS011;67152;36.266;32.294;2023-03-01T05:27:20;40.80;;;11.93;;
77955;SDS011;67152;36.266;32.294;2023-03-01T05:29:48;40.45;;;11.55;;
77955;SDS011;67152;36.266;32.294;2023-03-01T05:32:14;38.70;;;11.60;;
77955;SDS011;67152;36.266;32.294;2023-03-01T05:34:42;34.42;;;10.43;;
77955;SDS011;67152;36.266;32.294;2023-03-01T05:37:08;27.25;;;9.65;;
77955;SDS011;67152;36.266;32.294;2023-03-01T05:39:35;36.47;;;9.25;;
77955;SDS011;67152;36.266;32.294;2023-03-01T05:42:02;40.33;;;11.23;;
77955;SDS011;67152;36.266;32.294;2023-03-01T05:44:29;39.13;;;11.02;;
77955;SDS011;67152;36.266;32.294;2023-03-01T05:46:56;23.98;;;10.75;;
77955;SDS011;67152;36.266;32.294;2023-03-01T05:49:23;36.72;;;11.40;;
77955;SDS011;67152;36.266;32.294;2023-03-01T05:51:50;27.70;;;7.90;;
77955;SDS011;67152;36.266;32.294;2023-03-01T05:54:18;34.53;;;9.52;;
77955;SDS011;67152;36.266;32.294;2023-03-01T05:56:47;30.90;;;9.90;;
77955;SDS011;67152;36.266;32.294;2023-03-01T05:59:14;32.85;;;11.27;;
77955;SDS011;67152;36.266;32.294;2023-03-01T06:01:42;38.28;;;10.63;;
77955;SDS011;67152;36.266;32.294;2023-03-01T06:04:09;49.53;;;11.77;;
77955;SDS011;67152;36.266;32.294;2023-03-01T06:06:36;44.05;;;11.85;;
77955;SDS011;67152;36.266;32.294;2023-03-01T06:09:04;38.58;;;10.30;;
77955;SDS011;67152;36.266;32.294;2023-03-01T06:11:36;32.33;;;10.52;;
77955;SDS011;67152;36.266;32.294;2023-03-01T06:14:03;34.40;;;10.35;;
77955;SDS011;67152;36.266;32.294;2023-03-01T06:16:32;37.13;;;10.73;;
77955;SDS011;67152;36.266;32.294;2023-03-01T06:18:59;39.15;;;9.90;;
77955;SDS011;67152;36.266;32.294;2023-03-01T06:21:25;32.72;;;9.90;;
77955;SDS011;67152;36.266;32.294;2023-03-01T06:23:52;31.85;;;9.63;;
77955;SDS011;67152;36.266;32.294;2023-03-01T06:26:19;32.22;;;10.40;;
77955;SDS011;67152;36.266;32.294;2023-03-01T06:28:46;34.22;;;9.60;;
77955;SDS011;67152;36.266;32.294;2023-03-01T06:31:13;29.42;;;10.35;;
77955;SDS011;67152;36.266;32.294;2023-03-01T06:33:39;25.80;;;9.27;;
77955;SDS011;67152;36.266;32.294;2023-03-01T06:36:06;27.50;;;9.82;;
77955;SDS011;67152;36.266;32.294;2023-03-01T06:38:34;31.52;;;8.93;;
77955;SDS011;67152;36.266;32.294;2023-03-01T06:41:00;35.72;;;10.07;;
77955;SDS011;67152;36.266;32.294;2023-03-01T06:43:27;26.08;;;9.95;;
77955;SDS011;67152;36.266;32.294;2023-03-01T06:45:55;35.22;;;10.32;;
77955;SDS011;67152;36.266;32.294;2023-03-01T06:48:22;43.40;;;10.93;;
77955;SDS011;67152;36.266;32.294;2023-03-01T06:50:49;32.63;;;10.07;;
77955;SDS011;67152;36.266;32.294;2023-03-01T06:53:15;34.28;;;12.13;;
77955;SDS011;67152;36.266;32.294;2023-03-01T06:55:42;41.85;;;9.45;;
77955;SDS011;67152;36.266;32.294;2023-03-01T06:58:09;23.77;;;9.00;;
77955;SDS011;67152;36.266;32.294;2023-03-01T07:00:37;38.25;;;10.57;;
77955;SDS011;67152;36.266;32.294;2023-03-01T07:03:06;32.65;;;9.98;;
77955;SDS011;67152;36.266;32.294;2023-03-01T07:05:33;52.47;;;11.23;;
77955;SDS011;67152;36.266;32.294;2023-03-01T07:08:00;37.10;;;10.15;;
77955;SDS011;67152;36.266;32.294;2023-03-01T07:10:27;42.50;;;9.35;;
77955;SDS011;67152;36.266;32.294;2023-03-01T07:12:54;36.22;;;10.30;;
77955;SDS011;67152;36.266;32.294;2023-03-01T07:15:22;33.38;;;10.05;;
77955;SDS011;67152;36.266;32.294;2023-03-01T07:22:50;34.05;;;9.13;;
77955;SDS011;67152;36.266;32.294;2023-03-01T07:25:18;33.53;;;10.35;;
77955;SDS011;67152;36.266;32.294;2023-03-01T07:27:48;34.90;;;9.75;;
77955;SDS011;67152;36.266;32.294;2023-03-01T07:30:16;45.88;;;10.35;;
77955;SDS011;67152;36.266;32.294;2023-03-01T07:32:43;37.80;;;10.07;;
77955;SDS011;67152;36.266;32.294;2023-03-01T07:35:11;33.35;;;9.90;;
77955;SDS011;67152;36.266;32.294;2023-03-01T07:37:38;26.88;;;8.80;;
77955;SDS011;67152;36.266;32.294;2023-03-01T07:40:05;27.85;;;9.18;;
77955;SDS011;67152;36.266;32.294;2023-03-01T07:42:33;73.15;;;11.45;;
77955;SDS011;67152;36.266;32.294;2023-03-01T07:45:00;52.20;;;11.27;;
77955;SDS011;67152;36.266;32.294;2023-03-01T07:47:28;45.25;;;10.52;;
77955;SDS011;67152;36.266;32.294;2023-03-01T07:52:21;30.38;;;10.35;;
77955;SDS011;67152;36.266;32.294;2023-03-01T07:54:48;34.60;;;11.52;;
77955;SDS011;67152;36.266;32.294;2023-03-01T07:57:15;39.95;;;12.60;;
77955;SDS011;67152;36.266;32.294;2023-03-01T07:59:43;50.97;;;12.70;;
77955;SDS011;67152;36.266;32.294;2023-03-01T08:02:10;52.83;;;13.25;;
77955;SDS011;67152;36.266;32.294;2023-03-01T08:04:37;38.10;;;11.93;;
77955;SDS011;67152;36.266;32.294;2023-03-01T08:07:04;36.03;;;11.35;;
77955;SDS011;67152;36.266;32.294;2023-03-01T08:09:34;47.45;;;11.93;;
77955;SDS011;67152;36.266;32.294;2023-03-01T08:12:05;44.25;;;12.30;;
77955;SDS011;67152;36.266;32.294;2023-03-01T08:14:32;37.90;;;12.00;;
77955;SDS011;67152;36.266;32.294;2023-03-01T08:16:59;35.08;;;13.27;;
77955;SDS011;67152;36.266;32.294;2023-03-01T08:19:28;51.50;;;14.50;;
77955;SDS011;67152;36.266;32.294;2023-03-01T08:24:24;47.35;;;14.70;;
77955;SDS011;67152;36.266;32.294;2023-03-01T08:26:50;38.97;;;14.40;;
77955;SDS011;67152;36.266;32.294;2023-03-01T08:29:17;45.78;;;13.65;;
77955;SDS011;67152;36.266;32.294;2023-03-01T08:31:44;37.38;;;14.05;;
77955;SDS011;67152;36.266;32.294;2023-03-01T08:34:11;43.72;;;13.40;;
77955;SDS011;67152;36.266;32.294;2023-03-01T08:36:40;32.90;;;13.40;;
77955;SDS011;67152;36.266;32.294;2023-03-01T08:39:09;35.67;;;14.02;;
77955;SDS011;67152;36.266;32.294;2023-03-01T08:41:37;30.98;;;13.65;;
77955;SDS011;67152;36.266;32.294;2023-03-01T08:46:33;49.83;;;14.77;;
77955;SDS011;67152;36.266;32.294;2023-03-01T08:49:05;48.95;;;13.82;;
77955;SDS011;67152;36.266;32.294;2023-03-01T08:51:42;37.53;;;13.45;;
77955;SDS011;67152;36.266;32.294;2023-03-01T08:54:13;58.70;;;16.20;;
77955;SDS011;67152;36.266;32.294;2023-03-01T08:56:41;37.58;;;12.68;;
77955;SDS011;67152;36.266;32.294;2023-03-01T08:59:09;41.13;;;13.30;;
77955;SDS011;67152;36.266;32.294;2023-03-01T09:01:39;27.38;;;11.35;;
77955;SDS011;67152;36.266;32.294;2023-03-01T09:04:09;37.05;;;11.68;;
77955;SDS011;67152;36.266;32.294;2023-03-01T09:06:37;36.30;;;11.45;;
77955;SDS011;67152;36.266;32.294;2023-03-01T09:09:04;29.55;;;10.75;;
77955;SDS011;67152;36.266;32.294;2023-03-01T09:11:31;25.05;;;10.18;;
77955;SDS011;67152;36.266;32.294;2023-03-01T09:13:59;32.97;;;11.32;;
77955;SDS011;67152;36.266;32.294;2023-03-01T09:16:25;27.15;;;10.63;;
77955;SDS011;67152;36.266;32.294;2023-03-01T09:18:53;28.27;;;11.48;;
77955;SDS011;67152;36.266;32.294;2023-03-01T09:21:21;42.22;;;11.65;;
77955;SDS011;67152;36.266;32.294;2023-03-01T09:23:49;26.25;;;10.57;;
77955;SDS011;67152;36.266;32.294;2023-03-01T09:29:03;166.48;;;15.52;;
77955;SDS011;67152;36.266;32.294;2023-03-01T09:31:30;36.22;;;10.90;;
77955;SDS011;67152;36.266;32.294;2023-03-01T09:36:24;29.65;;;10.27;;
77955;SDS011;67152;36.266;32.294;2023-03-01T09:38:54;25.92;;;10.25;;
77955;SDS011;67152;36.266;32.294;2023-03-01T09:46:20;31.45;;;10.13;;
77955;SDS011;67152;36.266;32.294;2023-03-01T09:48:50;31.75;;;10.75;;
77955;SDS011;67152;36.266;32.294;2023-03-01T09:51:23;34.55;;;9.18;;
77955;SDS011;67152;36.266;32.294;2023-03-01T09:54:01;30.77;;;10.48;;
77955;SDS011;67152;36.266;32.294;2023-03-01T10:04:49;38.30;;;10.82;;
77955;SDS011;67152;36.266;32.294;2023-03-01T10:07:39;27.83;;;10.52;;
77955;SDS011;67152;36.266;32.294;2023-03-01T10:10:29;33.28;;;11.07;;
77955;SDS011;67152;36.266;32.294;2023-03-01T10:13:00;25.02;;;10.10;;
77955;SDS011;67152;36.266;32.294;2023-03-01T10:15:35;30.00;;;10.48;;
77955;SDS011;67152;36.266;32.294;2023-03-01T10:18:28;40.20;;;10.27;;
77955;SDS011;67152;36.266;32.294;2023-03-01T10:20:59;35.80;;;9.82;;
77955;SDS011;67152;36.266;32.294;2023-03-01T10:23:28;35.13;;;10.38;;
77955;SDS011;67152;36.266;32.294;2023-03-01T10:29:17;33.63;;;11.02;;
77955;SDS011;67152;36.266;32.294;2023-03-01T10:31:49;33.63;;;11.25;;
77955;SDS011;67152;36.266;32.294;2023-03-01T10:34:22;32.10;;;10.57;;
77955;SDS011;67152;36.266;32.294;2023-03-01T10:37:13;38.28;;;10.60;;
77955;SDS011;67152;36.266;32.294;2023-03-01T10:39:58;34.95;;;10.48;;
77955;SDS011;67152;36.266;32.294;2023-03-01T10:42:26;41.38;;;11.30;;
77955;SDS011;67152;36.266;32.294;2023-03-01T10:44:56;33.45;;;11.13;;
77955;SDS011;67152;36.266;32.294;2023-03-01T10:47:24;33.63;;;12.65;;
77955;SDS011;67152;36.266;32.294;2023-03-01T10:49:53;36.63;;;11.65;;
77955;SDS011;67152;36.266;32.294;2023-03-01T10:52:29;36.90;;;11.43;;
77955;SDS011;67152;36.266;32.294;2023-03-01T10:57:39;32.58;;;11.23;;
77955;SDS011;67152;36.266;32.294;2023-03-01T11:05:24;35.67;;;10.20;;
77955;SDS011;67152;36.266;32.294;2023-03-01T11:07:55;30.90;;;10.82;;
77955;SDS011;67152;36.266;32.294;2023-03-01T11:10:25;35.13;;;11.07;;
77955;SDS011;67152;36.266;32.294;2023-03-01T11:13:06;40.58;;;10.93;;
77955;SDS011;67152;36.266;32.294;2023-03-01T11:15:34;29.75;;;10.63;;
77955;SDS011;67152;36.266;32.294;2023-03-01T11:18:05;41.45;;;11.68;;
77955;SDS011;67152;36.266;32.294;2023-03-01T11:20:48;43.10;;;12.18;;
77955;SDS011;67152;36.266;32.294;2023-03-01T11:23:17;35.65;;;11.50;;
77955;SDS011;67152;36.266;32.294;2023-03-01T11:25:50;44.08;;;12.75;;
77955;SDS011;67152;36.266;32.294;2023-03-01T11:28:23;32.65;;;11.52;;
77955;SDS011;67152;36.266;32.294;2023-03-01T11:30:55;34.45;;;11.75;;
77955;SDS011;67152;36.266;32.294;2023-03-01T11:38:53;29.88;;;11.25;;
77955;SDS011;67152;36.266;32.294;2023-03-01T11:41:21;37.97;;;10.63;;
77955;SDS011;67152;36.266;32.294;2023-03-01T11:43:56;36.88;;;12.00;;
77955;SDS011;67152;36.266;32.294;2023-03-01T12:00:02;28.65;;;12.02;;
77955;SDS011;67152;36.266;32.294;2023-03-01T12:02:40;34.45;;;12.40;;
77955;SDS011;67152;36.266;32.294;2023-03-01T12:08:28;31.85;;;12.32;;
77955;SDS011;67152;36.266;32.294;2023-03-01T12:21:30;41.10;;;10.80;;
77955;SDS011;67152;36.266;32.294;2023-03-01T12:24:15;26.40;;;10.98;;
77955;SDS011;67152;36.266;32.294;2023-03-01T12:26:51;44.97;;;11.75;;
77955;SDS011;67152;36.266;32.294;2023-03-01T12:29:55;25.20;;;9.95;;
77955;SDS011;67152;36.266;32.294;2023-03-01T12:40:23;37.50;;;11.45;;
77955;SDS011;67152;36.266;32.294;2023-03-01T12:46:09;41.10;;;10.93;;
77955;SDS011;67152;36.266;32.294;2023-03-01T12:49:01;28.30;;;11.05;;
77955;SDS011;67152;36.266;32.294;2023-03-01T12:51:39;23.98;;;11.45;;
77955;SDS011;67152;36.266;32.294;2023-03-01T12:54:16;28.67;;;10.82;;
77955;SDS011;67152;36.266;32.294;2023-03-01T12:56:49;27.83;;;12.80;;
77955;SDS011;67152;36.266;32.294;2023-03-01T12:59:27;37.08;;;14.00;;
77955;SDS011;67152;36.266;32.294;2023-03-01T13:02:17;27.80;;;11.75;;
77955;SDS011;67152;36.266;32.294;2023-03-01T13:07:50;30.08;;;11.90;;
77955;SDS011;67152;36.266;32.294;2023-03-01T13:13:13;39.05;;;11.27;;
77955;SDS011;67152;36.266;32.294;2023-03-01T13:15:48;45.42;;;12.30;;
77955;SDS011;67152;36.266;32.294;2023-03-01T13:20:46;41.53;;;12.05;;
77955;SDS011;67152;36.266;32.294;2023-03-01T13:23:26;30.52;;;11.68;;
77955;SDS011;67152;36.266;32.294;2023-03-01T13:39:02;37.10;;;14.48;;
77955;SDS011;67152;36.266;32.294;2023-03-01T13:44:17;60.97;;;13.90;;
77955;SDS011;67152;36.266;32.294;2023-03-01T13:46:47;62.08;;;13.70;;
77955;SDS011;67152;36.266;32.294;2023-03-01T13:51:42;39.92;;;13.25;;
77955;SDS011;67152;36.266;32.294;2023-03-01T13:54:14;27.50;;;13.00;;
77955;SDS011;67152;36.266;32.294;2023-03-01T13:56:42;35.95;;;13.15;;
77955;SDS011;67152;36.266;32.294;2023-03-01T13:59:17;33.58;;;11.43;;
77955;SDS011;67152;36.266;32.294;2023-03-01T14:01:56;33.28;;;13.10;;
77955;SDS011;67152;36.266;32.294;2023-03-01T14:04:28;34.38;;;11.38;;
77955;SDS011;67152;36.266;32.294;2023-03-01T14:09:38;35.83;;;12.10;;
77955;SDS011;67152;36.266;32.294;2023-03-01T14:12:28;41.25;;;12.02;;
77955;SDS011;67152;36.266;32.294;2023-03-01T14:15:01;79.05;;;14.02;;
77955;SDS011;67152;36.266;32.294;2023-03-01T14:17:52;35.75;;;13.43;;
77955;SDS011;67152;36.266;32.294;2023-03-01T14:20:30;29.35;;;13.27;;
77955;SDS011;67152;36.266;32.294;2023-03-01T14:23:02;47.22;;;13.95;;
77955;SDS011;67152;36.266;32.294;2023-03-01T14:25:37;86.60;;;15.60;;
77955;SDS011;67152;36.266;32.294;2023-03-01T14:28:13;29.08;;;14.20;;
77955;SDS011;67152;36.266;32.294;2023-03-01T14:30:44;36.47;;;14.25;;
77955;SDS011;67152;36.266;32.294;2023-03-01T14:33:18;116.88;;;17.75;;
77955;SDS011;67152;36.266;32.294;2023-03-01T14:36:07;49.75;;;14.30;;
77955;SDS011;67152;36.266;32.294;2023-03-01T14:38:40;50.17;;;16.05;;
77955;SDS011;67152;36.266;32.294;2023-03-01T14:41:18;39.53;;;17.15;;
77955;SDS011;67152;36.266;32.294;2023-03-01T14:43:47;44.45;;;16.23;;
77955;SDS011;67152;36.266;32.294;2023-03-01T14:46:37;36.60;;;15.48;;
77955;SDS011;67152;36.266;32.294;2023-03-01T14:49:17;35.60;;;15.15;;
77955;SDS011;67152;36.266;32.294;2023-03-01T14:51:57;51.05;;;16.38;;
77955;SDS011;67152;36.266;32.294;2023-03-01T14:54:48;53.10;;;16.25;;
77955;SDS011;67152;36.266;32.294;2023-03-01T14:57:20;44.40;;;16.20;;
77955;SDS011;67152;36.266;32.294;2023-03-01T14:59:53;178.45;;;20.40;;
77955;SDS011;67152;36.266;32.294;2023-03-01T15:02:22;61.33;;;16.35;;
77955;SDS011;67152;36.266;32.294;2023-03-01T15:04:51;56.42;;;14.65;;
77955;SDS011;67152;36.266;32.294;2023-03-01T15:07:23;45.50;;;13.25;;
77955;SDS011;67152;36.266;32.294;2023-03-01T15:09:58;87.95;;;15.20;;
77955;SDS011;67152;36.266;32.294;2023-03-01T15:14:56;53.33;;;14.52;;
77955;SDS011;67152;36.266;32.294;2023-03-01T15:17:37;73.55;;;14.27;;
77955;SDS011;67152;36.266;32.294;2023-03-01T15:20:06;69.43;;;16.23;;
77955;SDS011;67152;36.266;32.294;2023-03-01T15:22:46;38.85;;;14.25;;
77955;SDS011;67152;36.266;32.294;2023-03-01T15:25:16;41.25;;;14.05;;
77955;SDS011;67152;36.266;32.294;2023-03-01T15:27:46;43.92;;;13.57;;
77955;SDS011;67152;36.266;32.294;2023-03-01T15:30:34;45.20;;;15.48;;
77955;SDS011;67152;36.266;32.294;2023-03-01T15:33:20;33.80;;;14.32;;
77955;SDS011;67152;36.266;32.294;2023-03-01T15:35:56;66.13;;;14.38;;
77955;SDS011;67152;36.266;32.294;2023-03-01T15:38:35;38.30;;;13.02;;
77955;SDS011;67152;36.266;32.294;2023-03-01T15:41:46;68.07;;;15.95;;
77955;SDS011;67152;36.266;32.294;2023-03-01T15:46:47;52.70;;;15.13;;
77955;SDS011;67152;36.266;32.294;2023-03-01T15:49:39;43.22;;;14.75;;
77955;SDS011;67152;36.266;32.294;2023-03-01T15:52:36;50.33;;;12.70;;
77955;SDS011;67152;36.266;32.294;2023-03-01T15:55:16;51.15;;;15.13;;
77955;SDS011;67152;36.266;32.294;2023-03-01T15:57:46;46.30;;;15.68;;
77955;SDS011;67152;36.266;32.294;2023-03-01T16:00:15;42.55;;;17.33;;
77955;SDS011;67152;36.266;32.294;2023-03-01T16:02:43;62.45;;;19.88;;
77955;SDS011;67152;36.266;32.294;2023-03-01T16:05:24;62.50;;;18.13;;
77955;SDS011;67152;36.266;32.294;2023-03-01T16:07:56;96.57;;;18.55;;
77955;SDS011;67152;36.266;32.294;2023-03-01T16:10:24;92.32;;;20.30;;
77955;SDS011;67152;36.266;32.294;2023-03-01T16:15:20;103.35;;;32.13;;
77955;SDS011;67152;36.266;32.294;2023-03-01T16:17:48;100.07;;;32.08;;
77955;SDS011;67152;36.266;32.294;2023-03-01T16:20:18;121.78;;;42.17;;
77955;SDS011;67152;36.266;32.294;2023-03-01T16:22:46;135.18;;;59.53;;
77955;SDS011;67152;36.266;32.294;2023-03-01T16:25:17;108.20;;;41.42;;
77955;SDS011;67152;36.266;32.294;2023-03-01T16:27:48;107.45;;;45.15;;
77955;SDS011;67152;36.266;32.294;2023-03-01T16:30:18;131.70;;;46.08;;
77955;SDS011;67152;36.266;32.294;2023-03-01T16:32:47;141.02;;;47.03;;
77955;SDS011;67152;36.266;32.294;2023-03-01T16:35:15;109.13;;;39.95;;
77955;SDS011;67152;36.266;32.294;2023-03-01T16:37:44;144.50;;;50.30;;
77955;SDS011;67152;36.266;32.294;2023-03-01T16:42:55;130.18;;;42.88;;
77955;SDS011;67152;36.266;32.294;2023-03-01T16:45:35;139.80;;;52.00;;
77955;SDS011;67152;36.266;32.294;2023-03-01T16:48:02;121.43;;;49.90;;
77955;SDS011;67152;36.266;32.294;2023-03-01T16:50:59;127.05;;;48.72;;
77955;SDS011;67152;36.266;32.294;2023-03-01T16:55:55;77.50;;;35.67;;
77955;SDS011;67152;36.266;32.294;2023-03-01T16:58:23;96.90;;;39.53;;